Time;durP1;ratioP1;P1;durP2;ratioP2;P2;SDS_P1;SDS_P2;PMS_P1;PMS_P2;Temp;Humidity;BMP_temperature;BMP_pressure;BME280_temperature;BME280_humidity;BME280_pressure;Samples;Min_cycle;Max_cycle;Signal;HPM_P1;HPM_P2
2022/10/22 00:00:33;;;;;;;8.60;7.70;;;;;;;3.14;100.00;100294.20;1714563;80;21565;-59
2022/10/22 00:03:00;;;;;;;11.38;8.80;;;;;;;3.15;100.00;100306.34;1724727;81;21555;-59
2022/10/22 00:05:27;;;;;;;9.80;8.55;;;;;;;3.11;100.00;100314.58;1701270;81;21538;-59
2022/10/22 00:07:53;;;;;;;11.75;8.63;;;;;;;3.11;100.00;100308.08;1715444;81;21494;-59
2022/10/22 00:10:20;;;;;;;11.30;8.98;;;;;;;3.12;100.00;100317.59;1705359;80;21814;-59
2022/10/22 00:12:46;;;;;;;11.15;9.23;;;;;;;3.11;100.00;100309.82;1704624;82;21544;-59
2022/10/22 00:15:13;;;;;;;10.72;9.25;;;;;;;3.09;100.00;100296.83;1710924;81;21480;-58
2022/10/22 00:17:39;;;;;;;10.50;8.65;;;;;;;3.10;100.00;100294.64;1718018;80;21565;-59
2022/10/22 00:20:08;;;;;;;10.38;8.00;;;;;;;3.15;100.00;100300.29;1703567;80;21478;-59
2022/10/22 00:22:36;;;;;;;9.33;7.53;;;;;;;3.23;100.00;100302.42;1703582;80;21568;-58
2022/10/22 00:25:03;;;;;;;10.25;8.78;;;;;;;3.30;100.00;100297.65;1713227;80;21418;-59
2022/10/22 00:27:30;;;;;;;10.23;8.38;;;;;;;3.32;100.00;100285.51;1708045;81;21506;-59
2022/10/22 00:29:57;;;;;;;10.32;8.98;;;;;;;3.29;100.00;100283.77;1709033;81;21053;-59
2022/10/22 00:32:24;;;;;;;13.22;9.50;;;;;;;3.25;100.00;100272.95;1705815;81;21060;-59
2022/10/22 00:34:50;;;;;;;10.35;8.83;;;;;;;3.25;100.00;100273.39;1710038;81;22705;-58
2022/10/22 00:37:17;;;;;;;11.95;9.15;;;;;;;3.24;100.00;100266.45;1714434;81;21523;-58
2022/10/22 00:39:43;;;;;;;10.05;8.60;;;;;;;3.24;100.00;100259.95;1712728;80;21439;-59
2022/10/22 00:42:15;;;;;;;11.22;8.83;;;;;;;3.24;100.00;100254.76;1716597;81;21554;-58
2022/10/22 00:45:12;;;;;;;12.13;8.75;;;;;;;3.20;100.00;100259.54;1709799;81;21436;-59
2022/10/22 00:47:53;;;;;;;11.55;8.83;;;;;;;3.17;100.00;100264.77;1714846;81;22108;-59
2022/10/22 00:50:35;;;;;;;10.40;8.50;;;;;;;3.19;100.00;100250.03;1695289;81;21435;-59
2022/10/22 00:53:03;;;;;;;11.08;8.63;;;;;;;3.18;100.00;100254.34;1702587;80;21434;-59
2022/10/22 00:55:30;;;;;;;11.20;8.70;;;;;;;3.19;100.00;100243.09;1711275;81;21497;-59
2022/10/22 00:57:57;;;;;;;9.50;7.67;;;;;;;3.19;100.00;100248.73;1705996;80;21559;-59
2022/10/22 01:00:23;;;;;;;9.17;8.17;;;;;;;3.18;100.00;100236.15;1708020;80;21847;-59
2022/10/22 01:02:50;;;;;;;11.22;8.15;;;;;;;3.18;100.00;100235.30;1689372;81;22204;-59
2022/10/22 01:05:17;;;;;;;9.85;7.80;;;;;;;3.17;100.00;100219.29;1703118;81;21546;-59
2022/10/22 01:07:48;;;;;;;10.55;8.35;;;;;;;3.21;100.00;100215.80;1715547;81;21447;-59
2022/10/22 01:10:45;;;;;;;8.38;7.58;;;;;;;3.24;100.00;100232.25;1712713;81;21171;-63
2022/10/22 01:13:26;;;;;;;12.85;8.35;;;;;;;3.26;100.00;100217.96;1678326;83;21821;-59
2022/10/22 01:16:09;;;;;;;8.55;7.12;;;;;;;3.27;100.00;100214.03;1704314;81;21235;-59
2022/10/22 01:18:49;;;;;;;10.78;7.62;;;;;;;3.32;100.00;100204.93;1700996;82;21646;-59
2022/10/22 01:21:23;;;;;;;10.80;7.58;;;;;;;3.33;100.00;100201.89;1715602;81;21490;-59
2022/10/22 01:24:37;;;;;;;10.93;7.78;;;;;;;3.32;100.00;100214.03;1697897;82;21659;-59
2022/10/22 01:27:24;;;;;;;10.13;7.95;;;;;;;3.31;100.00;100204.08;1692795;83;21898;-59
2022/10/22 01:29:59;;;;;;;8.70;7.55;;;;;;;3.27;100.00;100204.93;1713111;82;21493;-59
2022/10/22 01:32:26;;;;;;;9.53;7.67;;;;;;;3.24;100.00;100201.48;1701153;81;21708;-59
2022/10/22 01:35:02;;;;;;;10.60;8.00;;;;;;;3.22;100.00;100200.21;1713659;81;21541;-59
2022/10/22 01:37:31;;;;;;;10.38;7.58;;;;;;;3.24;100.00;100198.88;1721146;81;21112;-59
2022/10/22 01:40:00;;;;;;;11.55;7.62;;;;;;;3.22;100.00;100200.63;1664905;83;21863;-59
2022/10/22 01:42:26;;;;;;;8.93;7.40;;;;;;;3.23;100.00;100204.97;1655167;84;21525;-59
2022/10/22 01:44:53;;;;;;;8.10;6.62;;;;;;;3.29;100.00;100200.59;1712844;80;21479;-59
2022/10/22 01:47:48;;;;;;;9.98;7.42;;;;;;;3.35;100.00;100204.90;1695507;82;21247;-60
2022/10/22 01:50:20;;;;;;;10.40;8.28;;;;;;;3.40;100.00;100201.85;1709539;81;21514;-59
2022/10/22 01:53:01;;;;;;;11.22;8.08;;;;;;;3.38;100.00;100196.24;1706146;81;21724;-59
2022/10/22 01:56:00;;;;;;;10.38;7.75;;;;;;;3.36;100.00;100195.39;1716313;80;22104;-59
2022/10/22 01:58:38;;;;;;;9.85;7.60;;;;;;;3.33;100.00;100201.45;1698595;82;21601;-60
2022/10/22 02:01:28;;;;;;;11.12;8.15;;;;;;;3.31;100.00;100191.08;1704593;81;21533;-59
2022/10/22 02:04:09;;;;;;;9.48;7.55;;;;;;;3.38;100.00;100190.59;1713279;81;21565;-60
2022/10/22 02:06:35;;;;;;;10.55;8.05;;;;;;;3.40;100.00;100187.55;1720294;81;21823;-59
2022/10/22 02:09:03;;;;;;;12.53;8.95;;;;;;;3.38;100.00;100182.80;1685228;82;21545;-59
2022/10/22 02:11:29;;;;;;;11.12;8.90;;;;;;;3.38;100.00;100184.55;1711701;81;21172;-59
2022/10/22 02:13:59;;;;;;;11.68;8.48;;;;;;;3.37;100.00;100182.80;1709867;80;21569;-60
2022/10/22 02:16:37;;;;;;;10.13;7.90;;;;;;;3.38;100.00;100183.25;1705269;81;21437;-60
2022/10/22 02:19:08;;;;;;;10.18;8.28;;;;;;;3.37;100.00;100185.41;1706366;80;21744;-60
2022/10/22 02:21:36;;;;;;;11.12;8.18;;;;;;;3.36;100.00;100189.74;1687242;81;21559;-60
2022/10/22 02:24:04;;;;;;;10.60;8.15;;;;;;;3.36;100.00;100184.99;1699971;81;21557;-60
2022/10/22 02:27:12;;;;;;;12.73;8.35;;;;;;;3.35;100.00;100180.20;1715338;81;21601;-60
2022/10/22 02:29:47;;;;;;;10.25;8.63;;;;;;;3.34;100.00;100177.20;1668042;82;21656;-60
2022/10/22 02:32:17;;;;;;;10.32;7.60;;;;;;;3.29;100.00;100167.24;1713202;80;21475;-59
2022/10/22 02:34:43;;;;;;;10.63;8.50;;;;;;;3.26;100.00;100164.68;1707053;81;20950;-60
2022/10/22 02:37:10;;;;;;;8.43;7.53;;;;;;;3.24;100.00;100158.19;1699832;82;21077;-63
2022/10/22 02:39:39;;;;;;;11.05;8.48;;;;;;;3.20;100.00;100155.17;1686718;81;21557;-59
2022/10/22 02:42:05;;;;;;;8.80;7.50;;;;;;;3.21;100.00;100158.63;1716854;81;21593;-59
2022/10/22 02:44:32;;;;;;;11.53;7.90;;;;;;;3.19;100.00;100156.03;1698418;82;21853;-59
2022/10/22 02:46:59;;;;;;;9.13;6.87;;;;;;;3.18;100.00;100145.20;1685009;82;21593;-60
2022/10/22 02:49:25;;;;;;;9.40;7.60;;;;;;;3.20;100.00;100147.38;1700001;82;21633;-60
2022/10/22 02:51:52;;;;;;;8.18;7.25;;;;;;;3.19;100.00;100142.19;1697738;82;21466;-59
2022/10/22 02:54:19;;;;;;;8.95;7.00;;;;;;;3.19;100.00;100139.59;1704272;80;20987;-60
2022/10/22 02:56:45;;;;;;;10.40;7.55;;;;;;;3.16;100.00;100132.65;1708832;81;21544;-60
2022/10/22 02:59:12;;;;;;;11.30;7.83;;;;;;;3.14;100.00;100139.59;1711439;81;21546;-59
2022/10/22 03:01:39;;;;;;;9.63;7.83;;;;;;;3.12;100.00;100144.79;1706663;81;21553;-59
2022/10/22 03:04:07;;;;;;;10.32;7.83;;;;;;;3.09;100.00;100146.13;1706301;81;21569;-60
2022/10/22 03:06:34;;;;;;;11.43;8.43;;;;;;;3.08;100.00;100143.52;1720021;81;21592;-59
2022/10/22 03:09:02;;;;;;;12.50;8.40;;;;;;;3.06;100.00;100145.27;1699654;82;21538;-59
2022/10/22 03:11:28;;;;;;;14.15;8.80;;;;;;;3.01;100.00;100133.58;1705164;81;21403;-60
2022/10/22 03:13:56;;;;;;;10.43;8.35;;;;;;;3.00;100.00;100134.47;1704695;80;21464;-59
2022/10/22 03:16:24;;;;;;;10.75;8.23;;;;;;;2.96;100.00;100124.08;1707364;81;21558;-60
2022/10/22 03:18:51;;;;;;;9.55;8.15;;;;;;;2.94;100.00;100113.72;1693534;82;21646;-59
2022/10/22 03:21:38;;;;;;;11.60;8.43;;;;;;;2.96;100.00;100120.17;1707873;82;21913;-59
2022/10/22 03:24:12;;;;;;;9.95;7.53;;;;;;;2.95;100.00;100114.13;1708679;81;21644;-59
2022/10/22 03:26:39;;;;;;;9.33;6.97;;;;;;;2.97;100.00;100116.28;1708683;80;21103;-61
2022/10/22 03:29:06;;;;;;;10.70;7.15;;;;;;;3.01;100.00;100114.09;1712979;81;21507;-59
2022/10/22 03:31:32;;;;;;;10.00;7.15;;;;;;;3.05;100.00;100110.64;1714483;80;21613;-61
2022/10/22 03:33:59;;;;;;;10.15;7.72;;;;;;;3.09;100.00;100099.80;1703941;80;21992;-60
2022/10/22 03:36:26;;;;;;;10.28;8.03;;;;;;;3.13;100.00;100100.20;1716055;81;21498;-60
2022/10/22 03:41:36;;;;;;;11.28;8.20;;;;;;;2.99;100.00;100089.86;1768318;79;22875;-62
2022/10/22 03:44:04;;;;;;;11.60;8.13;;;;;;;3.12;100.00;100086.33;1736485;80;21545;-61
2022/10/22 03:46:30;;;;;;;11.35;8.25;;;;;;;3.15;100.00;100084.16;1733419;81;21814;-61
2022/10/22 03:48:58;;;;;;;9.38;7.58;;;;;;;3.14;100.00;100091.96;1731954;81;20951;-61
2022/10/22 03:51:27;;;;;;;9.03;7.25;;;;;;;3.15;100.00;100088.51;1725734;80;21578;-62
2022/10/22 03:53:53;;;;;;;11.63;7.80;;;;;;;3.14;100.00;100088.92;1725005;80;21493;-63
2022/10/22 03:56:20;;;;;;;11.48;7.33;;;;;;;3.16;100.00;100085.02;1724787;80;21903;-64
2022/10/22 03:58:47;;;;;;;9.08;7.03;;;;;;;3.18;100.00;100085.42;1727399;81;22096;-63
2022/10/22 04:01:13;;;;;;;11.03;6.50;;;;;;;3.22;100.00;100088.88;1721885;81;21605;-62
2022/10/22 04:03:40;;;;;;;8.80;5.80;;;;;;;3.30;100.00;100083.22;1731894;81;21435;-62
2022/10/22 04:06:10;;;;;;;7.95;6.47;;;;;;;3.30;100.00;100074.97;1745764;80;21478;-62
2022/10/22 04:08:42;;;;;;;6.95;5.87;;;;;;;3.34;100.00;100076.27;1727006;80;21498;-62
2022/10/22 04:11:09;;;;;;;10.75;7.30;;;;;;;3.44;100.00;100078.77;1740815;81;21876;-61
2022/10/22 04:13:37;;;;;;;9.65;6.78;;;;;;;3.54;100.00;100073.06;1737860;80;21491;-61
2022/10/22 04:16:10;;;;;;;11.05;6.87;;;;;;;3.51;100.00;100071.36;1741984;80;21474;-61
2022/10/22 04:18:38;;;;;;;10.38;7.33;;;;;;;3.57;100.00;100074.80;1724835;80;21021;-61
2022/10/22 04:21:06;;;;;;;9.10;6.50;;;;;;;3.65;100.00;100070.39;1729100;81;21490;-61
2022/10/22 04:23:34;;;;;;;9.80;6.85;;;;;;;3.66;100.00;100057.38;1733356;80;21613;-61
2022/10/22 04:26:03;;;;;;;9.85;7.25;;;;;;;3.77;100.00;100058.61;1736071;80;20966;-61
2022/10/22 04:28:29;;;;;;;8.83;6.60;;;;;;;3.78;100.00;100063.36;1737006;80;21561;-61
2022/10/22 04:30:57;;;;;;;7.90;6.40;;;;;;;3.80;100.00;100059.00;1741236;80;20994;-62
2022/10/22 04:33:23;;;;;;;12.15;6.53;;;;;;;3.81;100.00;100062.90;1738834;81;21459;-62
2022/10/22 04:35:50;;;;;;;9.88;6.35;;;;;;;3.89;100.00;100055.88;1734928;80;21847;-61
2022/10/22 04:38:17;;;;;;;7.65;6.42;;;;;;;3.89;100.00;100053.28;1724555;80;21030;-61
2022/10/22 04:40:43;;;;;;;9.05;5.85;;;;;;;3.94;100.00;100051.95;1728078;81;21997;-61
2022/10/22 04:43:11;;;;;;;9.80;6.15;;;;;;;3.98;100.00;100052.80;1718190;82;21701;-62
2022/10/22 04:45:38;;;;;;;9.70;5.85;;;;;;;4.01;100.00;100048.42;1726276;80;21038;-62
2022/10/22 04:48:05;;;;;;;10.45;6.35;;;;;;;4.01;100.00;100062.73;1729458;80;21507;-60
2022/10/22 04:50:33;;;;;;;7.37;6.42;;;;;;;4.06;100.00;100057.03;1723865;80;21584;-60
2022/10/22 04:52:59;;;;;;;11.10;6.33;;;;;;;4.15;100.00;100059.98;1733204;80;20999;-60
2022/10/22 04:55:26;;;;;;;6.55;5.70;;;;;;;4.24;100.00;100052.09;1715520;80;21443;-61
2022/10/22 04:57:53;;;;;;;7.12;5.67;;;;;;;4.32;100.00;100057.21;1726861;82;21531;-61
2022/10/22 05:00:20;;;;;;;8.63;6.22;;;;;;;4.39;100.00;100051.06;1722890;80;21758;-61
2022/10/22 05:02:50;;;;;;;8.83;5.70;;;;;;;4.46;100.00;100049.23;1717757;81;21723;-61
2022/10/22 05:05:17;;;;;;;9.55;5.85;;;;;;;4.47;100.00;100038.81;1719231;82;21699;-60
2022/10/22 05:07:44;;;;;;;7.55;6.00;;;;;;;4.48;100.00;100043.16;1726724;81;21003;-61
2022/10/22 05:10:10;;;;;;;10.98;6.33;;;;;;;4.48;100.00;100038.36;1721166;81;21467;-60
2022/10/22 05:12:38;;;;;;;7.70;5.83;;;;;;;4.53;100.00;100039.63;1719748;82;21748;-60
2022/10/22 05:15:06;;;;;;;9.00;6.28;;;;;;;4.54;100.00;100037.02;1713598;81;21553;-60
2022/10/22 05:17:37;;;;;;;7.72;6.03;;;;;;;4.57;100.00;100033.05;1717410;82;21537;-61
2022/10/22 05:20:06;;;;;;;6.55;5.33;;;;;;;4.62;100.00;100033.01;1709116;81;21498;-61
2022/10/22 05:22:33;;;;;;;9.43;5.95;;;;;;;4.68;100.00;100029.88;1728959;81;21068;-61
2022/10/22 05:25:00;;;;;;;11.25;5.78;;;;;;;4.73;100.00;100038.06;1727834;81;21899;-61
2022/10/22 05:27:27;;;;;;;9.10;5.60;;;;;;;4.77;100.00;100037.17;1718203;82;21447;-61
2022/10/22 05:29:53;;;;;;;8.30;5.90;;;;;;;4.84;100.00;100038.78;1718302;80;21518;-61
2022/10/22 05:32:20;;;;;;;11.25;5.80;;;;;;;4.93;100.00;100037.37;1726578;80;21685;-61
2022/10/22 05:34:46;;;;;;;7.42;5.33;;;;;;;4.95;100.00;100039.51;1733815;80;21498;-61
2022/10/22 05:37:14;;;;;;;9.78;5.78;;;;;;;4.99;100.00;100045.55;1722525;80;21482;-60
2022/10/22 05:39:40;;;;;;;7.50;5.83;;;;;;;5.00;100.00;100039.02;1714852;80;20927;-60
2022/10/22 05:42:07;;;;;;;9.98;6.12;;;;;;;5.04;100.00;100043.30;1734853;80;21523;-60
2022/10/22 05:44:35;;;;;;;6.97;5.50;;;;;;;5.09;100.00;100043.25;1742001;80;21497;-60
2022/10/22 05:47:02;;;;;;;8.95;5.92;;;;;;;5.12;100.00;100042.33;1736193;81;21494;-60
2022/10/22 05:49:28;;;;;;;7.78;6.17;;;;;;;5.14;100.00;100047.97;1724258;81;21593;-60
2022/10/22 05:51:55;;;;;;;9.23;5.62;;;;;;;5.15;100.00;100052.73;1734644;81;21608;-62
2022/10/22 05:54:22;;;;;;;8.48;5.83;;;;;;;5.17;100.00;100054.42;1735385;81;21635;-60
2022/10/22 05:56:49;;;;;;;8.20;5.83;;;;;;;5.18;100.00;100056.58;1725383;80;21447;-60
2022/10/22 05:59:16;;;;;;;8.18;5.42;;;;;;;5.17;100.00;100054.42;1735363;81;21573;-61
2022/10/22 06:01:43;;;;;;;10.35;6.37;;;;;;;5.21;100.00;100049.58;1728603;81;21498;-60
2022/10/22 06:04:11;;;;;;;8.75;5.78;;;;;;;5.21;100.00;100039.59;1728897;81;21403;-60
2022/10/22 06:06:46;;;;;;;8.08;5.72;;;;;;;5.25;100.00;100030.84;1729510;80;21613;-60
2022/10/22 06:09:21;;;;;;;8.58;5.95;;;;;;;5.28;100.00;100022.13;1725249;80;21511;-60
2022/10/22 06:11:49;;;;;;;6.50;5.58;;;;;;;5.32;100.00;100014.68;1743693;81;21479;-61
2022/10/22 06:14:17;;;;;;;6.67;5.67;;;;;;;5.36;100.00;100029.39;1738812;80;21914;-61
2022/10/22 06:16:44;;;;;;;8.95;5.45;;;;;;;5.41;100.00;100033.64;1731539;81;21493;-61
2022/10/22 06:19:12;;;;;;;9.20;5.28;;;;;;;5.48;100.00;100023.11;1740236;80;21565;-60
2022/10/22 06:21:39;;;;;;;6.78;5.45;;;;;;;5.57;100.00;100020.36;1734543;81;21561;-60
2022/10/22 06:24:07;;;;;;;8.55;5.03;;;;;;;5.69;100.00;100020.59;1752987;80;21573;-62
2022/10/22 06:26:33;;;;;;;;;;;;;;;5.84;100.00;100022.51;1734435;81;21797;-61
2022/10/22 06:29:01;;;;;;;8.30;4.78;;;;;;;5.95;100.00;100022.36;1722406;80;20443;-61
2022/10/22 06:31:27;;;;;;;12.60;5.03;;;;;;;6.15;100.00;100025.05;1736838;81;21506;-61
2022/10/22 06:33:56;;;;;;;6.85;5.37;;;;;;;6.25;100.00;100023.97;1741010;81;21726;-62
2022/10/22 06:36:23;;;;;;;7.78;5.03;;;;;;;6.36;100.00;100023.31;1733221;81;21538;-62
2022/10/22 06:38:54;;;;;;;7.92;5.58;;;;;;;6.49;100.00;100030.47;1737036;80;21815;-61
2022/10/22 06:41:21;;;;;;;6.70;4.97;;;;;;;6.60;100.00;100027.20;1735688;81;21471;-62
2022/10/22 06:43:49;;;;;;;;;;;;;;;6.71;100.00;100023.52;1738992;80;21471;-68
2022/10/22 06:46:18;;;;;;;6.22;4.42;;;;;;;6.80;100.00;100019.41;1728822;81;20422;-69
2022/10/22 06:48:54;;;;;;;5.67;4.35;;;;;;;6.93;100.00;100019.55;1729308;81;21474;-67
2022/10/22 06:51:21;;;;;;;8.68;4.65;;;;;;;7.06;100.00;100038.88;1735838;81;21784;-66
2022/10/22 06:53:47;;;;;;;9.58;5.25;;;;;;;7.13;100.00;100028.24;1737562;80;21569;-65
2022/10/22 06:56:18;;;;;;;8.78;5.25;;;;;;;7.23;100.00;100028.89;1748560;79;21046;-65
2022/10/22 06:58:52;;;;;;;9.73;5.05;;;;;;;7.35;100.00;100021.23;1734075;80;21021;-66
2022/10/22 07:01:23;;;;;;;7.60;4.80;;;;;;;7.47;100.00;100018.76;1744943;80;20994;-65
2022/10/22 07:03:50;;;;;;;12.13;4.80;;;;;;;7.62;100.00;100014.91;1743491;80;21878;-63
2022/10/22 07:06:17;;;;;;;;;;;;;;;7.75;100.00;100014.56;1740489;78;21565;-61
2022/10/22 07:08:44;;;;;;;6.30;4.55;;;;;;;7.81;100.00;100018.78;1728901;81;20422;-61
2022/10/22 07:11:17;;;;;;;5.25;4.60;;;;;;;7.95;100.00;100024.98;1747489;80;21443;-61
2022/10/22 07:13:44;;;;;;;10.23;5.15;;;;;;;8.04;100.00;100021.25;1739705;80;21494;-61
2022/10/22 07:16:11;;;;;;;5.28;4.28;;;;;;;8.15;100.00;100016.59;1742849;80;21785;-62
2022/10/22 07:18:39;;;;;;;7.08;4.75;;;;;;;8.30;100.00;100016.63;1746619;80;21530;-62
2022/10/22 07:21:08;;;;;;;7.33;5.08;;;;;;;8.45;100.00;100005.73;1739055;80;21540;-62
2022/10/22 07:23:34;;;;;;;5.37;4.50;;;;;;;8.55;100.00;100002.41;1740364;80;21573;-62
2022/10/22 07:26:06;;;;;;;8.75;4.40;;;;;;;8.64;100.00;100005.22;1731984;81;21619;-61
2022/10/22 07:28:37;;;;;;;7.47;4.55;;;;;;;8.75;100.00;100004.00;1732310;80;21839;-62
2022/10/22 07:31:05;;;;;;;7.97;4.67;;;;;;;8.77;100.00;99994.31;1746148;80;21521;-63
2022/10/22 07:33:32;;;;;;;8.33;4.55;;;;;;;8.77;100.00;99988.22;1741333;80;21136;-62
2022/10/22 13:41:31;;;;;;;7.37;5.70;;;;;;;13.94;94.91;99726.00;1849787;75;27255;-63
2022/10/22 13:43:58;;;;;;;7.10;6.40;;;;;;;13.75;95.04;99728.33;1832236;77;21564;-64
2022/10/22 13:56:05;;;;;;;7.67;6.70;;;;;;;13.12;99.74;99734.27;1833496;74;26822;-65
2022/10/22 14:02:27;;;;;;;8.35;5.80;;;;;;;13.10;100.00;99736.61;1824279;76;21518;-63
2022/10/22 14:04:53;;;;;;;9.50;6.20;;;;;;;12.96;100.00;99735.97;1775013;77;21495;-65
